createdAt,value
2018-10-04T00:00:57.705Z,1008.78
2018-10-04T00:02:07.834Z,1008.75
2018-10-04T00:03:17.906Z,1008.74
2018-10-04T00:04:28.027Z,1008.75
2018-10-04T00:05:38.100Z,1008.74
2018-10-04T00:06:48.180Z,1008.78
2018-10-04T00:07:58.259Z,1008.75
2018-10-04T00:09:10.026Z,1008.75
2018-10-04T00:10:20.104Z,1008.77
2018-10-04T00:11:29.912Z,1008.78
2018-10-04T00:12:39.984Z,1008.78
2018-10-04T00:13:50.060Z,1008.75
2018-10-04T00:15:00.143Z,1008.73
2018-10-04T00:16:10.244Z,1008.79
2018-10-04T00:17:20.314Z,1008.81
2018-10-04T00:18:30.136Z,1008.8
2018-10-04T00:19:39.667Z,1008.78
2018-10-04T00:20:49.749Z,1008.79
2018-10-04T00:21:59.878Z,1008.76
2018-10-04T00:23:09.975Z,1008.77
2018-10-04T00:24:19.522Z,1008.76
2018-10-04T00:25:29.329Z,1008.79
2018-10-04T00:26:39.400Z,1008.72
2018-10-04T00:27:49.258Z,1008.73
2018-10-04T00:28:59.386Z,1008.7
2018-10-04T00:30:09.465Z,1008.71
2018-10-04T00:31:19.582Z,1008.66
2018-10-04T00:32:29.401Z,1008.66
2018-10-04T00:33:39.466Z,1008.64
2018-10-04T00:34:49.585Z,1008.62
2018-10-04T00:35:59.714Z,1008.67
2018-10-04T00:37:09.792Z,1008.63
2018-10-04T00:38:19.860Z,1008.66
2018-10-04T00:39:29.699Z,1008.66
2018-10-04T00:40:39.575Z,1008.7
2018-10-04T00:41:49.643Z,1008.67
2018-10-04T00:42:59.722Z,1008.71
2018-10-04T00:44:09.780Z,1008.69
2018-10-04T00:45:19.858Z,1008.7
2018-10-04T00:46:29.977Z,1008.71
2018-10-04T00:47:40.040Z,1008.72
2018-10-04T00:48:50.111Z,1008.73
2018-10-04T00:50:01.334Z,1008.71
2018-10-04T00:51:11.433Z,1008.7
2018-10-04T00:52:21.559Z,1008.68
2018-10-04T00:53:31.373Z,1008.69
2018-10-04T00:54:41.207Z,1008.65
2018-10-04T00:55:51.295Z,1008.67
2018-10-04T00:57:01.380Z,1008.65
2018-10-04T00:58:11.532Z,1008.66
2018-10-04T00:59:21.132Z,1008.67
2018-10-04T01:00:31.209Z,1008.64
2018-10-04T01:01:41.015Z,1008.63
2018-10-04T01:02:51.072Z,1008.62
2018-10-04T01:04:02.701Z,1008.61
2018-10-04T01:05:12.304Z,1008.67
2018-10-04T01:06:22.245Z,1008.65
2018-10-04T01:07:32.114Z,1008.65
2018-10-04T01:08:41.930Z,1008.65
2018-10-04T01:09:51.785Z,1008.7
2018-10-04T01:11:01.865Z,1008.7
2018-10-04T01:12:12.180Z,1008.67
2018-10-04T01:13:22.223Z,1008.64
2018-10-04T01:14:31.511Z,1008.62
2018-10-04T01:15:41.636Z,1008.59
2018-10-04T01:16:51.464Z,1008.58
2018-10-04T01:18:01.568Z,1008.62
2018-10-04T01:19:11.660Z,1008.62
2018-10-04T01:20:21.723Z,1008.64
2018-10-04T01:21:31.781Z,1008.63
2018-10-04T01:22:41.603Z,1008.63
2018-10-04T01:23:51.670Z,1008.54
2018-10-04T01:25:03.314Z,1008.58
2018-10-04T01:26:13.387Z,1008.57
2018-10-04T01:27:23.185Z,1008.59
2018-10-04T01:28:33.246Z,1008.56
2018-10-04T01:29:43.309Z,1008.59
2018-10-04T01:30:53.433Z,1008.61
2018-10-04T01:32:05.806Z,1008.56
2018-10-04T01:33:15.664Z,1008.57
2018-10-04T01:34:25.736Z,1008.56
2018-10-04T01:35:35.550Z,1008.54
2018-10-04T01:36:45.373Z,1008.57
2018-10-04T01:37:54.920Z,1008.56
2018-10-04T01:39:05.039Z,1008.6
2018-10-04T01:40:15.111Z,1008.57
2018-10-04T01:41:25.432Z,1008.57
2018-10-04T01:42:35.261Z,1008.56
2018-10-04T01:43:45.089Z,1008.6
2018-10-04T01:44:54.949Z,1008.61
2018-10-04T01:46:05.027Z,1008.6
2018-10-04T01:47:15.100Z,1008.61
2018-10-04T01:48:25.162Z,1008.64
2018-10-04T01:49:35.217Z,1008.62
2018-10-04T01:50:45.116Z,1008.61
2018-10-04T01:51:54.913Z,1008.61
2018-10-04T01:53:04.992Z,1008.63
2018-10-04T01:54:15.058Z,1008.63
2018-10-04T01:55:25.134Z,1008.67
2018-10-04T01:56:35.261Z,1008.62
2018-10-04T01:57:45.103Z,1008.66
2018-10-04T01:58:55.220Z,1008.68
2018-10-04T02:00:05.290Z,1008.62
2018-10-04T02:01:15.373Z,1008.62
2018-10-04T02:02:25.498Z,1008.59
2018-10-04T02:03:35.602Z,1008.59
2018-10-04T02:04:45.665Z,1008.57
2018-10-04T02:05:55.731Z,1008.52
2018-10-04T02:07:05.597Z,1008.5
2018-10-04T02:08:15.700Z,1008.47
2018-10-04T02:09:25.780Z,1008.49
2018-10-04T02:10:35.849Z,1008.46
2018-10-04T02:11:45.926Z,1008.49
2018-10-04T02:12:56.207Z,1008.46
2018-10-04T02:14:06.275Z,1008.5
2018-10-04T02:15:15.825Z,1008.48
2018-10-04T02:16:25.890Z,1008.52
2018-10-04T02:17:35.964Z,1008.57
2018-10-04T02:18:45.781Z,1008.61
2018-10-04T02:19:55.600Z,1008.6
2018-10-04T02:21:05.688Z,1008.63
2018-10-04T02:22:15.780Z,1008.66
2018-10-04T02:23:25.840Z,1008.68
2018-10-04T02:24:35.951Z,1008.7
2018-10-04T02:25:46.030Z,1008.67
2018-10-04T02:26:56.088Z,1008.73
2018-10-04T02:28:07.733Z,1008.75
2018-10-04T02:29:17.853Z,1008.75
2018-10-04T02:30:27.957Z,1008.74
2018-10-04T02:31:38.036Z,1008.73
2018-10-04T02:32:48.129Z,1008.72
2018-10-04T02:33:57.938Z,1008.72
2018-10-04T02:35:09.088Z,1008.73
2018-10-04T02:36:19.167Z,1008.73
2018-10-04T02:37:28.991Z,1008.78
2018-10-04T02:38:38.804Z,1008.75
2018-10-04T02:39:48.897Z,1008.76
2018-10-04T02:40:58.795Z,1008.78
2018-10-04T02:42:08.874Z,1008.8
2018-10-04T02:43:19.011Z,1008.8
2018-10-04T02:44:28.825Z,1008.82
2018-10-04T02:45:38.638Z,1008.83
2018-10-04T02:46:48.723Z,1008.83
2018-10-04T02:47:58.839Z,1008.83
2018-10-04T02:49:09.445Z,1008.87
2018-10-04T02:50:19.269Z,1008.85
2018-10-04T02:51:29.357Z,1008.82
2018-10-04T02:52:38.930Z,1008.84
2018-10-04T02:53:48.743Z,1008.82
2018-10-04T02:54:58.841Z,1008.85
2018-10-04T02:56:08.919Z,1008.79
2018-10-04T02:57:19.010Z,1008.78
2018-10-04T02:58:29.085Z,1008.81
2018-10-04T02:59:38.905Z,1008.78
2018-10-04T03:00:49.189Z,1008.76
2018-10-04T03:01:59.273Z,1008.76
2018-10-04T03:34:20.191Z,1009.05
2018-10-04T03:35:30.266Z,1009.02
2018-10-04T03:36:40.355Z,1009.04
2018-10-04T03:37:50.427Z,1009
2018-10-04T03:39:04.144Z,1009.03
2018-10-04T03:40:13.997Z,1009
2018-10-04T03:41:24.075Z,1009.04
2018-10-04T03:42:34.149Z,1009.04
2018-10-04T03:43:44.218Z,1009.04
2018-10-04T03:44:54.115Z,1009.09
2018-10-04T03:46:04.190Z,1009.1
2018-10-04T03:47:14.385Z,1009.1
2018-10-04T03:48:24.212Z,1009.1
2018-10-04T03:49:34.351Z,1009.07
2018-10-04T03:50:44.434Z,1009.06
2018-10-04T03:51:54.514Z,1009.05
2018-10-04T03:53:04.323Z,1009.07
2018-10-04T03:54:14.396Z,1009.11
2018-10-04T03:55:24.196Z,1009.09
2018-10-04T03:56:34.028Z,1009.09
2018-10-04T03:57:43.939Z,1009.1
2018-10-04T03:58:54.030Z,1009.11
2018-10-04T04:00:04.125Z,1009.12
2018-10-04T04:01:14.228Z,1009.11
2018-10-04T04:02:24.309Z,1009.12
2018-10-04T04:03:34.448Z,1009.09
2018-10-04T04:04:44.546Z,1009.11
2018-10-04T04:05:54.631Z,1009.18
2018-10-04T04:07:04.714Z,1009.19
2018-10-04T04:08:14.807Z,1009.2
2018-10-04T04:09:24.937Z,1009.17
2018-10-04T04:10:35.025Z,1009.2
2018-10-04T04:11:45.177Z,1009.19
2018-10-04T04:12:55.912Z,1009.22
2018-10-04T04:14:06.501Z,1009.16
2018-10-04T04:15:16.636Z,1009.21
2018-10-04T04:16:26.943Z,1009.2
2018-10-04T04:17:36.492Z,1009.24
2018-10-04T04:18:46.577Z,1009.24
2018-10-04T04:19:56.665Z,1009.26
2018-10-04T04:21:06.760Z,1009.27
2018-10-04T04:22:16.870Z,1009.25
2018-10-04T04:23:27.430Z,1009.31
2018-10-04T04:24:37.527Z,1009.31
2018-10-04T04:25:47.617Z,1009.35
2018-10-04T04:26:57.178Z,1009.39
2018-10-04T04:28:06.871Z,1009.37
2018-10-04T04:29:16.427Z,1009.4
2018-10-04T04:30:26.505Z,1009.39
2018-10-04T04:31:36.695Z,1009.4
2018-10-04T04:32:46.975Z,1009.42
2018-10-04T04:33:57.161Z,1009.39
2018-10-04T04:35:07.241Z,1009.42
2018-10-04T04:36:17.331Z,1009.44
2018-10-04T04:37:27.438Z,1009.46
2018-10-04T04:38:37.499Z,1009.42
2018-10-04T04:39:47.593Z,1009.43
2018-10-04T04:40:57.491Z,1009.45
2018-10-04T04:42:07.938Z,1009.47
2018-10-04T04:43:18.067Z,1009.5
2018-10-04T04:44:28.150Z,1009.48
2018-10-04T04:45:38.230Z,1009.46
2018-10-04T04:46:48.184Z,1009.52
2018-10-04T04:47:58.908Z,1009.53
2018-10-04T04:49:09.012Z,1009.55
2018-10-04T04:50:19.102Z,1009.49
2018-10-04T04:51:29.164Z,1009.56
2018-10-04T04:52:38.987Z,1009.55
2018-10-04T04:53:49.053Z,1009.58
2018-10-04T04:54:59.134Z,1009.59
2018-10-04T04:56:09.800Z,1009.59
2018-10-04T04:57:19.869Z,1009.58
2018-10-04T04:58:29.975Z,1009.6
2018-10-04T04:59:40.067Z,1009.61
2018-10-04T05:00:49.884Z,1009.61
2018-10-04T05:01:59.753Z,1009.63
2018-10-04T05:03:09.591Z,1009.61
2018-10-04T05:04:19.753Z,1009.64
2018-10-04T05:05:29.853Z,1009.64
2018-10-04T05:06:40.109Z,1009.63
2018-10-04T05:07:50.545Z,1009.64
2018-10-04T05:09:03.382Z,1009.64
2018-10-04T05:10:13.312Z,1009.65
2018-10-04T05:11:23.395Z,1009.68
2018-10-04T05:12:33.476Z,1009.66
2018-10-04T05:13:43.542Z,1009.67
2018-10-04T05:14:53.652Z,1009.74
2018-10-04T05:16:03.825Z,1009.76
2018-10-04T05:17:14.026Z,1009.75
2018-10-04T05:18:24.092Z,1009.78
2018-10-04T05:19:34.951Z,1009.81
2018-10-04T05:20:44.759Z,1009.87
2018-10-04T05:21:54.575Z,1009.83
2018-10-04T05:23:04.664Z,1009.87
2018-10-04T05:24:14.463Z,1009.89
2018-10-04T05:25:24.599Z,1009.87
2018-10-04T05:26:34.681Z,1009.91
2018-10-04T05:27:44.795Z,1009.9
2018-10-04T05:28:54.868Z,1009.88
2018-10-04T05:30:04.944Z,1009.9
2018-10-04T05:31:15.095Z,1009.93
2018-10-04T05:32:25.160Z,1009.87
2018-10-04T05:33:35.220Z,1009.88
2018-10-04T05:34:45.017Z,1009.95
2018-10-04T05:35:55.093Z,1009.96
2018-10-04T05:37:05.315Z,1009.94
2018-10-04T05:38:16.005Z,1009.95
2018-10-04T05:39:26.074Z,1009.97
2018-10-04T05:40:35.886Z,1009.97
2018-10-04T05:41:45.951Z,1009.97
2018-10-04T05:42:56.081Z,1010
2018-10-04T05:44:07.663Z,1009.98
2018-10-04T05:45:17.818Z,1010
2018-10-04T05:46:28.309Z,1009.99
2018-10-04T05:47:38.404Z,1010.02
2018-10-04T05:48:48.205Z,1010.05
2018-10-04T05:49:58.287Z,1010.04
2018-10-04T05:51:11.248Z,1010.06
2018-10-04T05:52:21.328Z,1010.06
2018-10-04T05:53:31.524Z,1010.13
2018-10-04T05:54:41.782Z,1010.14
2018-10-04T05:55:51.865Z,1010.17
2018-10-04T05:57:02.646Z,1010.18
2018-10-04T05:58:12.813Z,1010.22
2018-10-04T05:59:22.694Z,1010.21
2018-10-04T06:00:32.441Z,1010.23
2018-10-04T06:01:42.524Z,1010.25
2018-10-04T06:02:52.658Z,1010.26
2018-10-04T06:04:02.735Z,1010.27
2018-10-04T06:05:12.829Z,1010.31
2018-10-04T06:06:23.458Z,1010.32
2018-10-04T06:07:33.321Z,1010.33
2018-10-04T06:08:43.413Z,1010.37
2018-10-04T06:09:53.626Z,1010.4
2018-10-04T06:11:06.242Z,1010.39
2018-10-04T06:12:16.317Z,1010.4
2018-10-04T06:13:26.399Z,1010.41
2018-10-04T06:14:36.199Z,1010.4
2018-10-04T06:15:46.323Z,1010.41
2018-10-04T06:16:56.174Z,1010.39
2018-10-04T06:18:06.246Z,1010.43
2018-10-04T06:19:16.326Z,1010.45
2018-10-04T06:20:26.420Z,1010.43
2018-10-04T06:21:36.504Z,1010.45
2018-10-04T06:22:46.621Z,1010.46
2018-10-04T06:23:56.474Z,1010.44
2018-10-04T06:25:06.533Z,1010.46
2018-10-04T06:26:15.851Z,1010.43
2018-10-04T06:27:25.712Z,1010.45
2018-10-04T06:28:35.825Z,1010.44
2018-10-04T06:29:46.325Z,1010.42
2018-10-04T06:30:56.137Z,1010.41
2018-10-04T06:32:07.019Z,1010.45
2018-10-04T06:33:17.095Z,1010.45
2018-10-04T06:34:26.887Z,1010.47
2018-10-04T06:35:36.959Z,1010.5
2018-10-04T06:36:47.030Z,1010.51
2018-10-04T06:37:56.608Z,1010.5
2018-10-04T06:39:08.530Z,1010.52
2018-10-04T06:40:18.701Z,1010.51
2018-10-04T06:41:28.645Z,1010.51
2018-10-04T06:42:38.514Z,1010.56
2018-10-04T06:43:48.636Z,1010.5
2018-10-04T06:44:58.778Z,1010.57
2018-10-04T06:46:09.041Z,1010.49
2018-10-04T06:47:19.223Z,1010.52
2018-10-04T06:48:28.773Z,1010.52
2018-10-04T06:49:38.614Z,1010.53
2018-10-04T06:50:48.426Z,1010.5
2018-10-04T06:51:58.495Z,1010.5
2018-10-04T06:53:08.299Z,1010.51
2018-10-04T06:54:18.386Z,1010.47
2018-10-04T06:55:28.476Z,1010.5
2018-10-04T06:56:38.719Z,1010.47
2018-10-04T06:57:48.871Z,1010.49
2018-10-04T06:58:59.250Z,1010.52
2018-10-04T07:00:09.321Z,1010.51
2018-10-04T07:01:19.136Z,1010.55
2018-10-04T07:02:28.938Z,1010.53
2018-10-04T07:03:38.766Z,1010.57
2018-10-04T07:04:49.288Z,1010.58
2018-10-04T07:05:59.366Z,1010.61
2018-10-04T07:07:09.466Z,1010.58
2018-10-04T07:08:19.548Z,1010.56
2018-10-04T07:09:29.621Z,1010.6
2018-10-04T07:10:39.455Z,1010.57
2018-10-04T07:11:49.532Z,1010.54
2018-10-04T07:12:59.649Z,1010.56
2018-10-04T07:14:09.738Z,1010.51
2018-10-04T07:15:19.853Z,1010.52
2018-10-04T07:16:29.919Z,1010.5
2018-10-04T07:17:40.001Z,1010.58
2018-10-04T07:18:49.821Z,1010.64
2018-10-04T07:19:59.634Z,1010.58
2018-10-04T07:21:09.663Z,1010.6
2018-10-04T07:22:19.486Z,1010.64
2018-10-04T07:23:29.288Z,1010.67
2018-10-04T07:24:39.415Z,1010.69
2018-10-04T07:25:49.519Z,1010.65
2018-10-04T07:26:59.333Z,1010.68
2018-10-04T07:28:09.421Z,1010.72
2018-10-04T07:29:19.226Z,1010.66
2018-10-04T07:30:29.343Z,1010.69
2018-10-04T07:31:39.429Z,1010.71
2018-10-04T07:32:50.042Z,1010.75
2018-10-04T07:34:00.158Z,1010.76
2018-10-04T07:35:10.240Z,1010.74
2018-10-04T07:36:20.314Z,1010.78
2018-10-04T07:37:30.400Z,1010.79
2018-10-04T07:38:40.211Z,1010.8
2018-10-04T07:39:50.118Z,1010.79
2018-10-04T07:41:00.368Z,1010.81
2018-10-04T07:42:10.468Z,1010.85
2018-10-04T07:43:20.941Z,1010.84
2018-10-04T07:44:31.032Z,1010.84
2018-10-04T07:45:41.137Z,1010.86
2018-10-04T07:46:51.208Z,1010.86
2018-10-04T07:48:02.508Z,1010.85
2018-10-04T07:49:12.311Z,1010.88
2018-10-04T07:50:22.414Z,1010.85
2018-10-04T07:51:32.572Z,1010.87
2018-10-04T07:52:42.654Z,1010.84
2018-10-04T07:53:52.468Z,1010.85
2018-10-04T07:55:02.612Z,1010.87
2018-10-04T07:56:12.692Z,1010.85
2018-10-04T07:57:22.745Z,1010.89
2018-10-04T07:58:32.817Z,1010.83
2018-10-04T07:59:42.894Z,1010.9
2018-10-04T08:00:53.024Z,1010.87
2018-10-04T08:02:02.637Z,1010.91
2018-10-04T08:03:12.435Z,1010.93
2018-10-04T08:04:22.256Z,1010.92
2018-10-04T08:05:32.364Z,1010.96
2018-10-04T08:06:42.999Z,1010.93
2018-10-04T08:07:54.008Z,1010.94
2018-10-04T08:09:04.082Z,1010.93
2018-10-04T08:10:14.260Z,1010.96
2018-10-04T08:11:24.084Z,1010.9
2018-10-04T08:12:34.156Z,1010.93
2018-10-04T08:13:43.970Z,1010.91
2018-10-04T08:14:54.080Z,1010.92
2018-10-04T08:16:03.939Z,1010.95
2018-10-04T08:17:13.789Z,1010.96
2018-10-04T08:18:23.600Z,1010.98
2018-10-04T08:19:33.675Z,1011
2018-10-04T08:20:43.738Z,1010.97
2018-10-04T08:21:53.660Z,1011
2018-10-04T08:23:03.486Z,1011.01
2018-10-04T08:24:13.573Z,1011
2018-10-04T08:25:23.124Z,1011.01
2018-10-04T08:26:33.207Z,1011.05
2018-10-04T08:27:43.447Z,1010.99
2018-10-04T08:28:53.759Z,1011.03
2018-10-04T08:30:03.584Z,1011.06
2018-10-04T08:31:13.668Z,1011.06
2018-10-04T08:32:23.750Z,1011.04
2018-10-04T08:33:33.833Z,1011.08
2018-10-04T08:34:44.054Z,1011.11
2018-10-04T08:35:54.136Z,1011.08
2018-10-04T08:37:03.697Z,1011.08
2018-10-04T08:38:13.804Z,1011.11
2018-10-04T08:39:23.977Z,1011.1
2018-10-04T08:40:33.896Z,1011.14
2018-10-04T08:41:44.072Z,1011.14
2018-10-04T08:42:54.274Z,1011.13
2018-10-04T08:44:04.348Z,1011.11
2018-10-04T08:45:14.496Z,1011.08
2018-10-04T08:46:24.570Z,1011.09
2018-10-04T08:47:34.393Z,1011.08
2018-10-04T08:48:44.490Z,1011.06
2018-10-04T08:49:54.303Z,1011.03
2018-10-04T08:51:04.135Z,1011.03
2018-10-04T08:52:14.209Z,1011.05
2018-10-04T08:53:24.300Z,1011.02
2018-10-04T08:54:34.386Z,1011.04
2018-10-04T08:55:44.209Z,1011.04
2018-10-04T08:56:54.037Z,1011.04
2018-10-04T08:58:07.010Z,1011.02
2018-10-04T08:59:17.090Z,1011.05
2018-10-04T09:00:27.324Z,1011.08
2018-10-04T09:01:37.172Z,1011.08
2018-10-04T09:02:47.251Z,1011.14
2018-10-04T09:03:57.172Z,1011.13
2018-10-04T09:05:08.687Z,1011.09
2018-10-04T09:06:18.790Z,1011.15
2018-10-04T09:07:28.965Z,1011.15
2018-10-04T09:08:39.865Z,1011.14
2018-10-04T09:09:49.946Z,1011.09
2018-10-04T09:10:59.756Z,1011.14
2018-10-04T09:12:09.591Z,1011.12
2018-10-04T09:13:19.672Z,1011.12
2018-10-04T09:14:29.836Z,1011.16
2018-10-04T09:15:39.920Z,1011.11
2018-10-04T09:16:49.989Z,1011.1
2018-10-04T09:18:00.090Z,1011.09
2018-10-04T09:19:10.170Z,1011.1
2018-10-04T09:20:19.462Z,1011.08
2018-10-04T09:21:29.544Z,1011.1
2018-10-04T09:22:39.414Z,1011.08
2018-10-04T09:23:49.232Z,1011.12
2018-10-04T09:24:59.329Z,1011.1
2018-10-04T09:26:09.147Z,1011.08
2018-10-04T09:27:19.469Z,1011.05
2018-10-04T09:28:29.501Z,1011.07
2018-10-04T09:29:39.564Z,1011.06
2018-10-04T09:30:49.655Z,1011.02
2018-10-04T09:31:59.779Z,1011.05
2018-10-04T09:33:09.821Z,1011.09
2018-10-04T09:34:19.757Z,1011.05
2018-10-04T09:35:29.589Z,1011.11
2018-10-04T09:43:59.959Z,1011.05
2018-10-04T09:45:10.037Z,1011.02
2018-10-04T09:46:20.163Z,1011.06
2018-10-04T09:47:30.817Z,1011.07
2018-10-04T09:48:41.084Z,1011
2018-10-04T09:49:51.091Z,1011.06
2018-10-04T09:51:01.193Z,1011.02
2018-10-04T09:52:11.333Z,1011.03
2018-10-04T09:53:21.472Z,1011.07
2018-10-04T09:54:31.877Z,1011.06
2018-10-04T09:55:41.967Z,1011.11
2018-10-04T09:56:52.030Z,1011.1
2018-10-04T09:58:03.373Z,1011.07
2018-10-04T09:59:13.462Z,1011.06
2018-10-04T10:00:23.391Z,1011.07
2018-10-04T10:01:33.472Z,1011.09
2018-10-04T10:02:43.577Z,1011.08
2018-10-04T10:03:53.399Z,1011.11
2018-10-04T10:05:02.943Z,1011.05
2018-10-04T10:06:12.756Z,1011.04
2018-10-04T10:07:22.580Z,1011.03
2018-10-04T10:08:32.674Z,1011.08
2018-10-04T10:09:42.753Z,1011.09
2018-10-04T10:10:52.370Z,1011.08
2018-10-04T10:12:03.192Z,1011.08
2018-10-04T10:13:13.026Z,1011.13
2018-10-04T10:14:22.840Z,1011.07
2018-10-04T10:15:32.915Z,1011.14
2018-10-04T10:16:42.735Z,1011.1
2018-10-04T10:17:52.804Z,1011.11
2018-10-04T10:19:02.608Z,1011.09
2018-10-04T10:20:12.690Z,1011.08
2018-10-04T10:21:22.772Z,1011.02
2018-10-04T10:22:32.591Z,1011
2018-10-04T10:23:42.694Z,1011
2018-10-04T10:24:52.779Z,1011.07
2018-10-04T10:26:02.839Z,1011
2018-10-04T10:27:12.752Z,1011.02
2018-10-04T10:28:23.410Z,1011.03
2018-10-04T10:29:33.036Z,1010.99
2018-10-04T10:30:42.842Z,1011.03
2018-10-04T10:31:52.917Z,1011.03
2018-10-04T10:33:02.802Z,1011.04
2018-10-04T10:34:12.916Z,1010.98
2018-10-04T10:35:23.107Z,1010.97
2018-10-04T10:36:33.167Z,1010.94
2018-10-04T10:37:43.238Z,1010.96
2018-10-04T10:38:53.305Z,1010.93
2018-10-04T10:40:06.964Z,1010.94
2018-10-04T10:41:17.897Z,1010.95
2018-10-04T10:42:27.981Z,1010.93
2018-10-04T10:43:38.083Z,1010.86
2018-10-04T10:44:48.218Z,1010.87
2018-10-04T10:45:58.304Z,1010.86
2018-10-04T10:47:10.503Z,1010.84
2018-10-04T10:48:20.309Z,1010.87
2018-10-04T10:49:30.405Z,1010.82
2018-10-04T10:50:40.546Z,1010.82
2018-10-04T10:51:50.682Z,1010.81
2018-10-04T10:53:03.457Z,1010.84
2018-10-04T10:54:13.756Z,1010.79
2018-10-04T10:55:23.828Z,1010.82
2018-10-04T10:56:33.373Z,1010.84
2018-10-04T10:57:43.181Z,1010.78
2018-10-04T10:58:53.521Z,1010.78
2018-10-04T11:00:04.499Z,1010.81
2018-10-04T11:01:14.797Z,1010.75
2018-10-04T11:02:25.180Z,1010.69
2018-10-04T11:03:35.008Z,1010.73
2018-10-04T11:04:45.095Z,1010.72
2018-10-04T11:05:55.207Z,1010.7
2018-10-04T11:07:05.325Z,1010.69
2018-10-04T11:08:15.251Z,1010.65
2018-10-04T11:09:25.431Z,1010.65
2018-10-04T11:10:38.469Z,1010.66
2018-10-04T11:11:48.848Z,1010.61
2018-10-04T11:12:58.962Z,1010.65
2018-10-04T11:14:08.794Z,1010.63
2018-10-04T11:15:18.888Z,1010.63
2018-10-04T11:16:28.740Z,1010.63
2018-10-04T11:17:38.560Z,1010.59
2018-10-04T11:18:48.807Z,1010.64
2018-10-04T11:19:58.952Z,1010.6
2018-10-04T11:21:09.067Z,1010.61
2018-10-04T11:22:19.145Z,1010.53
2018-10-04T11:23:29.261Z,1010.56
2018-10-04T11:24:39.386Z,1010.53
2018-10-04T11:25:49.480Z,1010.54
2018-10-04T11:26:59.601Z,1010.54
2018-10-04T11:28:10.599Z,1010.48
2018-10-04T11:29:20.775Z,1010.48
2018-10-04T11:30:31.341Z,1010.4
2018-10-04T11:31:41.506Z,1010.48
2018-10-04T11:32:51.346Z,1010.46
2018-10-04T11:34:01.723Z,1010.46
2018-10-04T11:35:11.821Z,1010.37
2018-10-04T11:36:21.980Z,1010.33
2018-10-04T11:37:31.814Z,1010.35
2018-10-04T11:38:41.915Z,1010.41
2018-10-04T11:39:52.043Z,1010.44
2018-10-04T11:41:02.140Z,1010.33
2018-10-04T11:42:11.736Z,1010.41
2018-10-04T11:43:21.816Z,1010.34
2018-10-04T11:44:31.914Z,1010.36
2018-10-04T11:45:42.010Z,1010.33
2018-10-04T11:46:52.091Z,1010.34
2018-10-04T11:48:03.923Z,1010.29
2018-10-04T11:49:13.752Z,1010.33
2018-10-04T11:50:23.846Z,1010.34
2018-10-04T11:51:33.995Z,1010.34
2018-10-04T11:52:44.127Z,1010.32
2018-10-04T11:53:53.975Z,1010.31
2018-10-04T11:55:03.808Z,1010.28
2018-10-04T11:56:13.632Z,1010.27
2018-10-04T11:57:23.440Z,1010.32
2018-10-04T11:58:33.515Z,1010.28
2018-10-04T11:59:43.647Z,1010.23
2018-10-04T12:00:53.769Z,1010.24
2018-10-04T12:02:03.980Z,1010.24
2018-10-04T12:03:14.080Z,1010.22
2018-10-04T12:04:24.160Z,1010.22
2018-10-04T12:05:34.224Z,1010.23
2018-10-04T12:06:44.109Z,1010.15
2018-10-04T12:07:54.810Z,1010.2
2018-10-04T12:09:06.076Z,1010.11
2018-10-04T12:10:16.257Z,1010.1
2018-10-04T12:11:26.363Z,1010.06
2018-10-04T12:12:36.497Z,1010.08
2018-10-04T12:13:46.770Z,1010.13
2018-10-04T12:14:56.649Z,1010.09
2018-10-04T12:16:06.749Z,1010.14
2018-10-04T12:17:16.828Z,1010.06
2018-10-04T12:18:27.070Z,1010.08
2018-10-04T12:19:37.505Z,1010.07
2018-10-04T12:20:47.324Z,1010.07
2018-10-04T12:21:57.418Z,1010.03
2018-10-04T12:23:07.340Z,1010.06
2018-10-04T12:24:17.421Z,1010.02
2018-10-04T12:25:27.244Z,1010.07
2018-10-04T12:26:37.352Z,1010.01
2018-10-04T12:27:47.414Z,1010.01
2018-10-04T12:28:57.476Z,1009.99
2018-10-04T12:30:07.601Z,1010.04
2018-10-04T12:31:17.817Z,1010.01
2018-10-04T12:32:29.221Z,1010.02
2018-10-04T12:33:39.103Z,1010.03
2018-10-04T12:34:49.381Z,1010.02
2018-10-04T12:35:59.500Z,1010.02
2018-10-04T12:37:09.964Z,1010.02
2018-10-04T12:38:20.173Z,1009.99
2018-10-04T12:39:30.381Z,1010.03
2018-10-04T12:40:40.196Z,1010
2018-10-04T12:41:49.758Z,1010.01
2018-10-04T12:42:59.574Z,1009.98
2018-10-04T12:44:09.821Z,1009.98
2018-10-04T12:45:20.239Z,1009.93
2018-10-04T12:46:30.326Z,1009.94
2018-10-04T12:47:40.413Z,1009.91
2018-10-04T12:48:50.518Z,1009.94
2018-10-04T12:50:02.180Z,1009.91
2018-10-04T12:51:11.726Z,1009.91
2018-10-04T12:52:21.820Z,1009.89
2018-10-04T12:53:32.144Z,1009.89
2018-10-04T12:54:42.237Z,1009.87
2018-10-04T12:55:52.373Z,1009.83
2018-10-04T12:57:02.941Z,1009.81
2018-10-04T12:58:13.016Z,1009.84
2018-10-04T12:59:23.157Z,1009.87
2018-10-04T13:00:33.254Z,1009.86
2018-10-04T13:01:43.618Z,1009.86
2018-10-04T13:02:53.708Z,1009.86
2018-10-04T13:04:03.777Z,1009.82
2018-10-04T13:05:13.872Z,1009.82
2018-10-04T13:06:23.810Z,1009.77
2018-10-04T13:07:34.592Z,1009.75
2018-10-04T13:08:44.749Z,1009.72
2018-10-04T13:09:54.566Z,1009.71
2018-10-04T13:11:05.391Z,1009.72
2018-10-04T13:12:15.711Z,1009.72
2018-10-04T13:13:25.857Z,1009.73
2018-10-04T13:14:35.934Z,1009.73
2018-10-04T13:15:46.023Z,1009.71
2018-10-04T13:16:56.094Z,1009.71
2018-10-04T13:18:06.691Z,1009.71
2018-10-04T13:19:16.572Z,1009.73
2018-10-04T13:20:26.723Z,1009.74
2018-10-04T13:21:37.509Z,1009.7
2018-10-04T13:22:48.293Z,1009.7
2018-10-04T13:23:58.365Z,1009.68
2018-10-04T13:25:09.065Z,1009.68
2018-10-04T13:26:19.158Z,1009.68
2018-10-04T13:27:28.995Z,1009.66
2018-10-04T13:28:38.887Z,1009.65
2018-10-04T13:29:48.959Z,1009.64
2018-10-04T13:30:59.039Z,1009.62
2018-10-04T13:32:10.172Z,1009.65
2018-10-04T13:33:20.314Z,1009.61
2018-10-04T13:34:30.765Z,1009.61
2018-10-04T13:35:40.575Z,1009.55
2018-10-04T13:36:50.715Z,1009.51
2018-10-04T13:38:00.849Z,1009.52
2018-10-04T13:39:10.963Z,1009.5
2018-10-04T13:40:21.040Z,1009.52
2018-10-04T13:41:30.943Z,1009.5
2018-10-04T13:42:40.512Z,1009.5
2018-10-04T13:43:50.317Z,1009.46
2018-10-04T13:45:00.195Z,1009.49
2018-10-04T13:46:10.903Z,1009.48
2018-10-04T13:47:21.803Z,1009.51
2018-10-04T13:48:31.871Z,1009.43
2018-10-04T13:49:41.962Z,1009.44
2018-10-04T13:50:52.079Z,1009.45
2018-10-04T13:52:02.239Z,1009.44
2018-10-04T13:53:12.318Z,1009.43
2018-10-04T13:54:22.648Z,1009.45
2018-10-04T13:55:32.761Z,1009.47
2018-10-04T13:56:42.853Z,1009.43
2018-10-04T13:57:52.698Z,1009.47
2018-10-04T13:59:02.872Z,1009.42
2018-10-04T14:00:13.360Z,1009.41
2018-10-04T14:01:23.206Z,1009.46
2018-10-04T14:02:33.315Z,1009.44
2018-10-04T14:03:43.562Z,1009.39
2018-10-04T14:04:53.643Z,1009.39
2018-10-04T14:06:04.068Z,1009.38
2018-10-04T14:07:14.448Z,1009.37
2018-10-04T14:08:24.294Z,1009.36
2018-10-04T14:09:34.391Z,1009.39
2018-10-04T14:10:44.509Z,1009.38
2018-10-04T14:11:54.699Z,1009.42
2018-10-04T14:13:04.862Z,1009.41
2018-10-04T14:14:15.508Z,1009.36
2018-10-04T14:15:25.585Z,1009.38
2018-10-04T14:16:35.670Z,1009.37
2018-10-04T14:17:45.559Z,1009.4
2018-10-04T14:18:55.759Z,1009.37
2018-10-04T14:20:05.873Z,1009.38
2018-10-04T14:21:16.016Z,1009.39
2018-10-04T14:22:26.104Z,1009.42
2018-10-04T14:23:36.225Z,1009.43
2018-10-04T14:24:46.332Z,1009.41
2018-10-04T14:25:56.528Z,1009.38
2018-10-04T14:27:06.611Z,1009.36
2018-10-04T14:28:16.436Z,1009.37
2018-10-04T14:29:26.526Z,1009.37
2018-10-04T14:30:36.335Z,1009.32
2018-10-04T14:31:46.426Z,1009.3
2018-10-04T14:32:56.682Z,1009.34
2018-10-04T14:34:06.834Z,1009.34
2018-10-04T14:35:17.037Z,1009.34
2018-10-04T14:36:27.134Z,1009.34
2018-10-04T14:37:37.225Z,1009.32
2018-10-04T14:38:47.428Z,1009.3
2018-10-04T14:39:57.584Z,1009.31
2018-10-04T14:41:07.741Z,1009.27
2018-10-04T14:42:17.854Z,1009.23
2018-10-04T14:43:27.965Z,1009.26
2018-10-04T14:44:38.061Z,1009.27
2018-10-04T14:45:47.930Z,1009.21
2018-10-04T14:46:58.821Z,1009.17
2018-10-04T14:48:08.940Z,1009.18
2018-10-04T14:49:19.073Z,1009.18
2018-10-04T14:50:29.200Z,1009.19